sensor_id;sensor_type;location;lat;lon;timestamp;pressure;altitude;pressure_sealevel;temperature;humidity
72585;BME280;60618;40.084;32.908;2023-10-19T00:01:59;89607.81;;;9.79;87.22
72585;BME280;60618;40.084;32.908;2023-10-19T00:04:26;89613.19;;;9.64;87.85
72585;BME280;60618;40.084;32.908;2023-10-19T00:06:54;89616.69;;;9.56;89.51
72585;BME280;60618;40.084;32.908;2023-10-19T00:09:20;89613.31;;;9.41;89.92
72585;BME280;60618;40.084;32.908;2023-10-19T00:11:47;89617.06;;;9.34;90.67
72585;BME280;60618;40.084;32.908;2023-10-19T00:14:14;89612.78;;;9.22;92.14
72585;BME280;60618;40.084;32.908;2023-10-19T00:16:45;89608.34;;;9.33;91.94
72585;BME280;60618;40.084;32.908;2023-10-19T00:19:12;89600.56;;;9.45;91.24
72585;BME280;60618;40.084;32.908;2023-10-19T00:21:39;89606.03;;;9.56;90.99
72585;BME280;60618;40.084;32.908;2023-10-19T00:24:06;89606.19;;;9.67;90.80
72585;BME280;60618;40.084;32.908;2023-10-19T00:26:33;89606.53;;;9.75;90.48
72585;BME280;60618;40.084;32.908;2023-10-19T00:29:00;89603.88;;;9.75;90.42
72585;BME280;60618;40.084;32.908;2023-10-19T00:31:27;89605.31;;;9.90;89.71
72585;BME280;60618;40.084;32.908;2023-10-19T00:33:55;89600.72;;;10.11;88.31
72585;BME280;60618;40.084;32.908;2023-10-19T00:36:23;89610.91;;;10.33;87.30
72585;BME280;60618;40.084;32.908;2023-10-19T00:38:50;89603.41;;;10.52;86.07
72585;BME280;60618;40.084;32.908;2023-10-19T00:41:25;89601.19;;;10.71;85.64
72585;BME280;60618;40.084;32.908;2023-10-19T00:43:52;89602.75;;;10.83;84.33
72585;BME280;60618;40.084;32.908;2023-10-19T00:46:19;89602.09;;;10.88;83.36
72585;BME280;60618;40.084;32.908;2023-10-19T00:48:59;89606.97;;;10.95;82.87
72585;BME280;60618;40.084;32.908;2023-10-19T00:51:28;89598.53;;;10.97;82.84
72585;BME280;60618;40.084;32.908;2023-10-19T00:53:58;89604.31;;;10.95;81.29
72585;BME280;60618;40.084;32.908;2023-10-19T00:56:27;89597.41;;;10.83;80.39
72585;BME280;60618;40.084;32.908;2023-10-19T00:58:54;89598.38;;;10.80;80.70
72585;BME280;60618;40.084;32.908;2023-10-19T01:01:24;89599.28;;;10.77;80.14
72585;BME280;60618;40.084;32.908;2023-10-19T01:03:53;89598.88;;;10.84;79.96
72585;BME280;60618;40.084;32.908;2023-10-19T01:06:20;89601.28;;;10.82;79.22
72585;BME280;60618;40.084;32.908;2023-10-19T01:08:47;89607.75;;;10.75;78.97
72585;BME280;60618;40.084;32.908;2023-10-19T01:11:14;89604.78;;;10.07;83.36
72585;BME280;60618;40.084;32.908;2023-10-19T01:13:41;89604.63;;;9.75;85.92
72585;BME280;60618;40.084;32.908;2023-10-19T01:16:12;89603.03;;;9.83;85.63
72585;BME280;60618;40.084;32.908;2023-10-19T01:18:39;89598.84;;;9.97;84.09
72585;BME280;60618;40.084;32.908;2023-10-19T01:21:06;89599.25;;;10.10;83.69
72585;BME280;60618;40.084;32.908;2023-10-19T01:23:33;89605.72;;;10.24;83.42
72585;BME280;60618;40.084;32.908;2023-10-19T01:26:00;89600.81;;;10.37;82.71
72585;BME280;60618;40.084;32.908;2023-10-19T01:28:28;89605.19;;;10.40;82.04
72585;BME280;60618;40.084;32.908;2023-10-19T01:30:55;89605.34;;;10.51;81.58
72585;BME280;60618;40.084;32.908;2023-10-19T01:33:22;89611.53;;;10.43;81.04
72585;BME280;60618;40.084;32.908;2023-10-19T01:35:49;89604.13;;;10.32;80.38
72585;BME280;60618;40.084;32.908;2023-10-19T01:38:16;89611.72;;;10.39;81.12
72585;BME280;60618;40.084;32.908;2023-10-19T01:40:43;89618.03;;;10.21;80.37
72585;BME280;60618;40.084;32.908;2023-10-19T01:43:10;89616.91;;;10.08;80.90
72585;BME280;60618;40.084;32.908;2023-10-19T01:45:37;89625.66;;;10.14;80.95
72585;BME280;60618;40.084;32.908;2023-10-19T01:48:04;89629.88;;;10.20;80.55
72585;BME280;60618;40.084;32.908;2023-10-19T01:50:31;89634.00;;;10.21;80.41
72585;BME280;60618;40.084;32.908;2023-10-19T01:52:58;89631.41;;;10.07;80.88
72585;BME280;60618;40.084;32.908;2023-10-19T01:55:25;89629.38;;;10.02;81.35
72585;BME280;60618;40.084;32.908;2023-10-19T01:57:52;89636.59;;;10.16;80.52
72585;BME280;60618;40.084;32.908;2023-10-19T02:00:19;89638.69;;;10.27;80.09
72585;BME280;60618;40.084;32.908;2023-10-19T02:02:46;89643.91;;;10.21;80.16
72585;BME280;60618;40.084;32.908;2023-10-19T02:05:13;89639.31;;;10.01;80.70
72585;BME280;60618;40.084;32.908;2023-10-19T02:07:40;89647.06;;;9.84;82.15
72585;BME280;60618;40.084;32.908;2023-10-19T02:10:07;89641.75;;;10.05;80.79
72585;BME280;60618;40.084;32.908;2023-10-19T02:12:34;89645.75;;;9.94;81.78
72585;BME280;60618;40.084;32.908;2023-10-19T02:15:01;89650.47;;;10.05;81.32
72585;BME280;60618;40.084;32.908;2023-10-19T02:17:28;89644.28;;;9.93;81.39
72585;BME280;60618;40.084;32.908;2023-10-19T02:19:55;89651.44;;;9.87;82.06
72585;BME280;60618;40.084;32.908;2023-10-19T02:22:22;89643.41;;;9.82;83.40
72585;BME280;60618;40.084;32.908;2023-10-19T02:24:49;89644.19;;;9.88;83.85
72585;BME280;60618;40.084;32.908;2023-10-19T02:27:16;89649.72;;;9.84;84.00
72585;BME280;60618;40.084;32.908;2023-10-19T02:29:57;89644.91;;;9.88;83.93
72585;BME280;60618;40.084;32.908;2023-10-19T02:32:24;89646.84;;;9.88;83.58
72585;BME280;60618;40.084;32.908;2023-10-19T02:34:51;89652.09;;;9.82;84.23
72585;BME280;60618;40.084;32.908;2023-10-19T02:37:18;89653.31;;;9.81;84.52
72585;BME280;60618;40.084;32.908;2023-10-19T02:39:45;89655.28;;;9.86;84.28
72585;BME280;60618;40.084;32.908;2023-10-19T02:42:12;89660.09;;;9.82;84.25
72585;BME280;60618;40.084;32.908;2023-10-19T02:44:39;89656.34;;;9.74;84.32
72585;BME280;60618;40.084;32.908;2023-10-19T02:50:28;89663.66;;;9.79;84.84
72585;BME280;60618;40.084;32.908;2023-10-19T02:52:54;89660.34;;;9.84;83.92
72585;BME280;60618;40.084;32.908;2023-10-19T02:55:21;89659.16;;;9.85;84.50
72585;BME280;60618;40.084;32.908;2023-10-19T02:57:48;89658.22;;;9.88;83.42
72585;BME280;60618;40.084;32.908;2023-10-19T03:00:15;89658.84;;;9.63;83.81
72585;BME280;60618;40.084;32.908;2023-10-19T03:02:42;89666.38;;;9.35;84.25
72585;BME280;60618;40.084;32.908;2023-10-19T03:05:09;89659.69;;;9.10;85.08
72585;BME280;60618;40.084;32.908;2023-10-19T03:07:36;89660.31;;;9.05;85.98
72585;BME280;60618;40.084;32.908;2023-10-19T03:10:04;89663.81;;;9.11;85.59
72585;BME280;60618;40.084;32.908;2023-10-19T03:12:31;89662.34;;;9.25;85.04
72585;BME280;60618;40.084;32.908;2023-10-19T03:14:58;89655.09;;;9.40;84.50
72585;BME280;60618;40.084;32.908;2023-10-19T03:17:25;89651.19;;;9.35;85.93
72585;BME280;60618;40.084;32.908;2023-10-19T03:19:52;89645.94;;;9.41;85.59
72585;BME280;60618;40.084;32.908;2023-10-19T03:22:20;89654.38;;;9.39;86.46
72585;BME280;60618;40.084;32.908;2023-10-19T03:24:46;89647.13;;;9.40;86.25
72585;BME280;60618;40.084;32.908;2023-10-19T03:27:15;89659.06;;;9.00;87.89
72585;BME280;60618;40.084;32.908;2023-10-19T03:29:43;89668.47;;;8.48;89.30
72585;BME280;60618;40.084;32.908;2023-10-19T03:32:10;89665.81;;;8.24;89.39
72585;BME280;60618;40.084;32.908;2023-10-19T03:34:37;89666.75;;;8.45;87.80
72585;BME280;60618;40.084;32.908;2023-10-19T03:37:06;89660.59;;;8.53;87.22
72585;BME280;60618;40.084;32.908;2023-10-19T03:39:33;89666.63;;;8.78;85.94
72585;BME280;60618;40.084;32.908;2023-10-19T03:42:00;89659.38;;;8.78;86.12
72585;BME280;60618;40.084;32.908;2023-10-19T03:44:27;89673.47;;;8.70;86.66
72585;BME280;60618;40.084;32.908;2023-10-19T03:46:54;89660.09;;;8.64;86.99
72585;BME280;60618;40.084;32.908;2023-10-19T03:49:22;89665.88;;;8.63;87.74
72585;BME280;60618;40.084;32.908;2023-10-19T03:51:49;89665.41;;;8.64;87.53
72585;BME280;60618;40.084;32.908;2023-10-19T03:54:16;89672.34;;;8.62;87.74
72585;BME280;60618;40.084;32.908;2023-10-19T03:56:43;89677.50;;;8.65;87.98
72585;BME280;60618;40.084;32.908;2023-10-19T03:59:10;89676.50;;;8.63;87.74
72585;BME280;60618;40.084;32.908;2023-10-19T04:01:37;89675.56;;;8.66;87.56
72585;BME280;60618;40.084;32.908;2023-10-19T04:04:04;89677.97;;;8.78;87.18
72585;BME280;60618;40.084;32.908;2023-10-19T04:06:31;89679.34;;;8.89;86.72
72585;BME280;60618;40.084;32.908;2023-10-19T04:08:58;89689.47;;;8.99;86.02
72585;BME280;60618;40.084;32.908;2023-10-19T04:11:25;89684.50;;;9.07;85.84
72585;BME280;60618;40.084;32.908;2023-10-19T04:13:52;89697.41;;;8.85;88.52
72585;BME280;60618;40.084;32.908;2023-10-19T04:16:19;89701.81;;;9.02;89.67
72585;BME280;60618;40.084;32.908;2023-10-19T04:18:47;89703.22;;;9.42;86.80
72585;BME280;60618;40.084;32.908;2023-10-19T04:21:14;89706.09;;;9.88;84.33
72585;BME280;60618;40.084;32.908;2023-10-19T04:23:41;89708.78;;;10.59;85.55
72585;BME280;60618;40.084;32.908;2023-10-19T04:26:08;89718.69;;;11.45;85.38
72585;BME280;60618;40.084;32.908;2023-10-19T04:28:35;89720.44;;;12.06;83.83
72585;BME280;60618;40.084;32.908;2023-10-19T04:31:02;89717.50;;;12.41;81.81
72585;BME280;60618;40.084;32.908;2023-10-19T04:33:32;89718.16;;;12.67;79.97
72585;BME280;60618;40.084;32.908;2023-10-19T04:35:59;89722.56;;;12.82;78.67
72585;BME280;60618;40.084;32.908;2023-10-19T04:38:27;89720.88;;;12.36;73.26
72585;BME280;60618;40.084;32.908;2023-10-19T04:40:54;89727.53;;;12.14;74.25
72585;BME280;60618;40.084;32.908;2023-10-19T04:43:21;89726.50;;;12.06;74.62
72585;BME280;60618;40.084;32.908;2023-10-19T04:45:48;89730.63;;;12.07;74.57
72585;BME280;60618;40.084;32.908;2023-10-19T04:48:15;89731.50;;;12.25;74.59
72585;BME280;60618;40.084;32.908;2023-10-19T04:50:42;89731.50;;;12.30;73.51
72585;BME280;60618;40.084;32.908;2023-10-19T04:53:09;89738.88;;;12.41;73.96
72585;BME280;60618;40.084;32.908;2023-10-19T04:55:36;89740.41;;;12.53;73.75
72585;BME280;60618;40.084;32.908;2023-10-19T04:58:03;89750.22;;;12.67;72.94
72585;BME280;60618;40.084;32.908;2023-10-19T05:00:30;89749.53;;;12.84;71.92
72585;BME280;60618;40.084;32.908;2023-10-19T05:02:57;89745.47;;;12.94;71.41
72585;BME280;60618;40.084;32.908;2023-10-19T05:05:24;89750.38;;;13.06;70.90
72585;BME280;60618;40.084;32.908;2023-10-19T05:07:51;89755.00;;;13.12;71.17
72585;BME280;60618;40.084;32.908;2023-10-19T05:10:18;89768.25;;;12.41;72.00
72585;BME280;60618;40.084;32.908;2023-10-19T05:12:45;89770.03;;;11.66;74.42
72585;BME280;60618;40.084;32.908;2023-10-19T05:15:12;89764.66;;;11.34;76.72
72585;BME280;60618;40.084;32.908;2023-10-19T05:17:39;89760.59;;;11.19;77.39
72585;BME280;60618;40.084;32.908;2023-10-19T05:20:06;89757.06;;;11.53;76.50
72585;BME280;60618;40.084;32.908;2023-10-19T05:22:33;89760.63;;;11.45;75.51
72585;BME280;60618;40.084;32.908;2023-10-19T05:25:00;89765.84;;;11.33;76.29
72585;BME280;60618;40.084;32.908;2023-10-19T05:27:27;89763.56;;;11.47;76.83
72585;BME280;60618;40.084;32.908;2023-10-19T05:29:54;89756.84;;;11.57;76.43
72585;BME280;60618;40.084;32.908;2023-10-19T05:32:21;89767.84;;;11.64;76.17
72585;BME280;60618;40.084;32.908;2023-10-19T05:34:48;89764.94;;;11.88;75.45
72585;BME280;60618;40.084;32.908;2023-10-19T05:37:15;89768.19;;;11.98;73.49
72585;BME280;60618;40.084;32.908;2023-10-19T05:39:42;89771.63;;;11.52;75.08
72585;BME280;60618;40.084;32.908;2023-10-19T05:42:09;89776.59;;;10.98;76.77
72585;BME280;60618;40.084;32.908;2023-10-19T05:44:36;89780.72;;;10.79;78.20
72585;BME280;60618;40.084;32.908;2023-10-19T05:47:03;89776.09;;;10.59;79.29
72585;BME280;60618;40.084;32.908;2023-10-19T05:49:32;89784.19;;;10.50;80.89
72585;BME280;60618;40.084;32.908;2023-10-19T05:51:59;89782.56;;;10.52;80.41
72585;BME280;60618;40.084;32.908;2023-10-19T05:54:26;89797.94;;;10.63;79.83
72585;BME280;60618;40.084;32.908;2023-10-19T05:56:53;89796.59;;;10.88;78.66
72585;BME280;60618;40.084;32.908;2023-10-19T05:59:21;89794.72;;;10.94;77.99
72585;BME280;60618;40.084;32.908;2023-10-19T06:01:48;89798.66;;;11.19;77.32
72585;BME280;60618;40.084;32.908;2023-10-19T06:04:15;89797.06;;;11.07;77.72
72585;BME280;60618;40.084;32.908;2023-10-19T06:06:57;89799.69;;;10.87;77.75
72585;BME280;60618;40.084;32.908;2023-10-19T06:09:27;89800.59;;;10.98;77.99
72585;BME280;60618;40.084;32.908;2023-10-19T06:11:54;89806.31;;;10.91;77.53
72585;BME280;60618;40.084;32.908;2023-10-19T06:14:21;89802.44;;;10.72;78.43
72585;BME280;60618;40.084;32.908;2023-10-19T06:16:48;89807.72;;;10.51;79.61
72585;BME280;60618;40.084;32.908;2023-10-19T06:19:15;89806.16;;;10.80;78.82
72585;BME280;60618;40.084;32.908;2023-10-19T06:21:42;89805.66;;;11.17;77.64
72585;BME280;60618;40.084;32.908;2023-10-19T06:24:09;89808.19;;;11.26;77.32
72585;BME280;60618;40.084;32.908;2023-10-19T06:26:36;89817.44;;;11.30;76.07
72585;BME280;60618;40.084;32.908;2023-10-19T06:29:04;89825.66;;;11.27;76.43
72585;BME280;60618;40.084;32.908;2023-10-19T06:31:31;89830.38;;;11.17;77.26
72585;BME280;60618;40.084;32.908;2023-10-19T06:33:57;89819.38;;;11.09;78.32
72585;BME280;60618;40.084;32.908;2023-10-19T06:36:25;89821.78;;;11.07;78.34
72585;BME280;60618;40.084;32.908;2023-10-19T06:38:52;89821.63;;;11.37;77.88
72585;BME280;60618;40.084;32.908;2023-10-19T06:41:19;89826.44;;;11.53;76.98
72585;BME280;60618;40.084;32.908;2023-10-19T06:43:46;89821.81;;;11.54;76.90
72585;BME280;60618;40.084;32.908;2023-10-19T06:46:13;89827.78;;;11.89;75.94
72585;BME280;60618;40.084;32.908;2023-10-19T06:48:40;89832.44;;;12.20;74.95
72585;BME280;60618;40.084;32.908;2023-10-19T06:51:07;89833.19;;;12.53;72.99
72585;BME280;60618;40.084;32.908;2023-10-19T06:53:34;89832.41;;;12.46;73.27
72585;BME280;60618;40.084;32.908;2023-10-19T06:56:01;89830.56;;;12.64;73.53
72585;BME280;60618;40.084;32.908;2023-10-19T06:58:28;89839.66;;;12.77;72.24
72585;BME280;60618;40.084;32.908;2023-10-19T07:00:55;89835.56;;;12.82;71.98
72585;BME280;60618;40.084;32.908;2023-10-19T07:03:22;89840.22;;;12.93;71.57
72585;BME280;60618;40.084;32.908;2023-10-19T07:05:51;89837.28;;;13.28;67.92
72585;BME280;60618;40.084;32.908;2023-10-19T07:08:18;89834.00;;;13.55;67.09
72585;BME280;60618;40.084;32.908;2023-10-19T07:10:45;89830.09;;;13.51;67.59
72585;BME280;60618;40.084;32.908;2023-10-19T07:13:12;89843.25;;;13.54;66.95
72585;BME280;60618;40.084;32.908;2023-10-19T07:15:39;89833.19;;;13.32;67.62
72585;BME280;60618;40.084;32.908;2023-10-19T07:18:06;89830.63;;;13.12;67.92
72585;BME280;60618;40.084;32.908;2023-10-19T07:20:33;89840.53;;;13.00;67.89
72585;BME280;60618;40.084;32.908;2023-10-19T07:23:01;89842.03;;;13.50;66.61
72585;BME280;60618;40.084;32.908;2023-10-19T07:25:28;89838.47;;;13.81;63.51
72585;BME280;60618;40.084;32.908;2023-10-19T07:27:56;89844.34;;;14.02;63.77
72585;BME280;60618;40.084;32.908;2023-10-19T07:30:22;89843.09;;;13.80;65.21
72585;BME280;60618;40.084;32.908;2023-10-19T07:32:49;89859.53;;;13.51;64.84
72585;BME280;60618;40.084;32.908;2023-10-19T07:35:18;89856.44;;;13.69;65.93
72585;BME280;60618;40.084;32.908;2023-10-19T07:37:45;89848.47;;;13.91;63.70
72585;BME280;60618;40.084;32.908;2023-10-19T07:40:12;89852.16;;;13.94;63.16
72585;BME280;60618;40.084;32.908;2023-10-19T07:42:42;89857.00;;;14.01;64.67
72585;BME280;60618;40.084;32.908;2023-10-19T07:45:09;89856.28;;;14.01;63.40
72585;BME280;60618;40.084;32.908;2023-10-19T07:47:36;89856.69;;;13.71;63.74
72585;BME280;60618;40.084;32.908;2023-10-19T07:50:03;89855.19;;;13.59;64.35
72585;BME280;60618;40.084;32.908;2023-10-19T07:52:30;89859.97;;;14.03;64.25
72585;BME280;60618;40.084;32.908;2023-10-19T07:54:57;89860.22;;;14.11;62.43
72585;BME280;60618;40.084;32.908;2023-10-19T07:57:24;89866.59;;;14.30;62.02
72585;BME280;60618;40.084;32.908;2023-10-19T07:59:51;89862.38;;;14.07;62.42
72585;BME280;60618;40.084;32.908;2023-10-19T08:02:18;89860.63;;;13.92;62.73
72585;BME280;60618;40.084;32.908;2023-10-19T08:04:45;89859.88;;;13.75;63.20
72585;BME280;60618;40.084;32.908;2023-10-19T08:07:12;89857.44;;;13.83;63.88
72585;BME280;60618;40.084;32.908;2023-10-19T08:09:39;89856.13;;;13.50;64.49
72585;BME280;60618;40.084;32.908;2023-10-19T08:12:06;89862.00;;;13.60;64.25
72585;BME280;60618;40.084;32.908;2023-10-19T08:14:33;89862.06;;;13.82;64.38
72585;BME280;60618;40.084;32.908;2023-10-19T08:17:00;89861.88;;;13.97;63.69
72585;BME280;60618;40.084;32.908;2023-10-19T08:19:27;89863.63;;;14.17;63.23
72585;BME280;60618;40.084;32.908;2023-10-19T08:21:54;89855.78;;;13.97;63.45
72585;BME280;60618;40.084;32.908;2023-10-19T08:24:21;89867.50;;;14.05;62.74
72585;BME280;60618;40.084;32.908;2023-10-19T08:26:49;89859.94;;;14.09;63.24
72585;BME280;60618;40.084;32.908;2023-10-19T08:29:16;89858.09;;;14.60;61.86
72585;BME280;60618;40.084;32.908;2023-10-19T08:31:43;89853.47;;;14.88;60.12
72585;BME280;60618;40.084;32.908;2023-10-19T08:34:11;89855.16;;;14.80;59.42
72585;BME280;60618;40.084;32.908;2023-10-19T08:36:38;89856.59;;;14.42;59.93
72585;BME280;60618;40.084;32.908;2023-10-19T08:39:06;89849.97;;;14.04;61.85
72585;BME280;60618;40.084;32.908;2023-10-19T08:41:37;89858.09;;;14.54;60.91
72585;BME280;60618;40.084;32.908;2023-10-19T08:44:04;89850.25;;;15.18;61.90
72585;BME280;60618;40.084;32.908;2023-10-19T08:46:32;89850.69;;;15.27;54.13
72585;BME280;60618;40.084;32.908;2023-10-19T08:48:59;89851.19;;;15.26;55.19
72585;BME280;60618;40.084;32.908;2023-10-19T08:51:26;89846.59;;;15.10;54.98
72585;BME280;60618;40.084;32.908;2023-10-19T08:53:54;89843.50;;;14.66;56.16
72585;BME280;60618;40.084;32.908;2023-10-19T08:56:21;89851.53;;;14.61;55.24
72585;BME280;60618;40.084;32.908;2023-10-19T08:58:48;89854.44;;;14.52;56.65
72585;BME280;60618;40.084;32.908;2023-10-19T09:01:18;89849.53;;;14.33;57.45
72585;BME280;60618;40.084;32.908;2023-10-19T09:03:45;89853.97;;;14.70;55.82
72585;BME280;60618;40.084;32.908;2023-10-19T09:06:13;89847.88;;;14.92;54.88
72585;BME280;60618;40.084;32.908;2023-10-19T09:08:40;89845.34;;;15.27;54.20
72585;BME280;60618;40.084;32.908;2023-10-19T09:11:08;89840.75;;;15.05;55.32
72585;BME280;60618;40.084;32.908;2023-10-19T09:13:50;89843.91;;;15.15;54.02
72585;BME280;60618;40.084;32.908;2023-10-19T09:16:19;89848.50;;;15.26;51.43
72585;BME280;60618;40.084;32.908;2023-10-19T09:18:48;89838.81;;;15.12;52.16
72585;BME280;60618;40.084;32.908;2023-10-19T09:21:16;89837.50;;;15.35;49.84
72585;BME280;60618;40.084;32.908;2023-10-19T09:23:44;89835.97;;;15.73;49.48
72585;BME280;60618;40.084;32.908;2023-10-19T09:26:11;89830.16;;;15.64;49.09
72585;BME280;60618;40.084;32.908;2023-10-19T09:28:39;89824.88;;;15.88;49.22
72585;BME280;60618;40.084;32.908;2023-10-19T09:31:06;89839.78;;;15.89;49.46
72585;BME280;60618;40.084;32.908;2023-10-19T09:33:33;89825.81;;;15.38;50.21
72585;BME280;60618;40.084;32.908;2023-10-19T09:36:02;89822.94;;;15.19;52.12
72585;BME280;60618;40.084;32.908;2023-10-19T09:38:29;89825.88;;;15.10;51.94
72585;BME280;60618;40.084;32.908;2023-10-19T09:40:56;89825.41;;;14.89;52.81
72585;BME280;60618;40.084;32.908;2023-10-19T09:43:43;89826.69;;;14.66;54.14
72585;BME280;60618;40.084;32.908;2023-10-19T09:46:12;89820.28;;;14.13;55.30
72585;BME280;60618;40.084;32.908;2023-10-19T09:48:41;89820.81;;;14.62;54.65
72585;BME280;60618;40.084;32.908;2023-10-19T09:51:09;89820.59;;;14.65;54.38
72585;BME280;60618;40.084;32.908;2023-10-19T09:53:48;89815.41;;;14.95;53.71
72585;BME280;60618;40.084;32.908;2023-10-19T09:56:30;89817.09;;;14.98;52.69
72585;BME280;60618;40.084;32.908;2023-10-19T09:59:04;89815.19;;;14.71;52.83
72585;BME280;60618;40.084;32.908;2023-10-19T10:02:10;89812.72;;;14.28;54.08
72585;BME280;60618;40.084;32.908;2023-10-19T10:04:37;89809.34;;;14.11;55.28
72585;BME280;60618;40.084;32.908;2023-10-19T10:07:06;89806.16;;;14.24;54.52
72585;BME280;60618;40.084;32.908;2023-10-19T10:09:39;89811.06;;;14.31;54.48
72585;BME280;60618;40.084;32.908;2023-10-19T10:12:22;89795.19;;;14.27;54.36
72585;BME280;60618;40.084;32.908;2023-10-19T10:15:07;89799.59;;;14.25;54.00
72585;BME280;60618;40.084;32.908;2023-10-19T10:17:38;89792.28;;;14.31;53.30
72585;BME280;60618;40.084;32.908;2023-10-19T10:22:39;89801.31;;;14.72;53.54
72585;BME280;60618;40.084;32.908;2023-10-19T10:25:07;89797.38;;;14.90;52.13
72585;BME280;60618;40.084;32.908;2023-10-19T10:27:50;89796.84;;;15.09;50.53
72585;BME280;60618;40.084;32.908;2023-10-19T10:30:18;89800.78;;;14.96;51.09
72585;BME280;60618;40.084;32.908;2023-10-19T10:38:06;89787.16;;;16.10;47.32
72585;BME280;60618;40.084;32.908;2023-10-19T10:40:46;89783.50;;;15.67;48.16
72585;BME280;60618;40.084;32.908;2023-10-19T10:43:14;89791.03;;;15.74;48.83
72585;BME280;60618;40.084;32.908;2023-10-19T10:45:41;89783.56;;;15.97;48.68
72585;BME280;60618;40.084;32.908;2023-10-19T10:48:17;89783.78;;;16.40;47.56
72585;BME280;60618;40.084;32.908;2023-10-19T10:50:45;89789.94;;;16.65;45.49
72585;BME280;60618;40.084;32.908;2023-10-19T10:53:13;89785.91;;;17.07;46.14
72585;BME280;60618;40.084;32.908;2023-10-19T10:55:40;89780.78;;;17.52;46.78
72585;BME280;60618;40.084;32.908;2023-10-19T10:58:08;89779.44;;;17.40;43.04
72585;BME280;60618;40.084;32.908;2023-10-19T11:00:42;89777.09;;;16.16;44.53
72585;BME280;60618;40.084;32.908;2023-10-19T11:03:09;89782.94;;;16.21;44.46
72585;BME280;60618;40.084;32.908;2023-10-19T11:05:37;89774.91;;;16.15;45.29
72585;BME280;60618;40.084;32.908;2023-10-19T11:08:08;89775.66;;;15.74;45.67
72585;BME280;60618;40.084;32.908;2023-10-19T11:10:35;89768.81;;;15.73;46.14
72585;BME280;60618;40.084;32.908;2023-10-19T11:13:06;89773.75;;;15.52;46.18
72585;BME280;60618;40.084;32.908;2023-10-19T11:15:34;89769.69;;;15.40;46.79
72585;BME280;60618;40.084;32.908;2023-10-19T11:18:01;89768.78;;;15.15;46.82
72585;BME280;60618;40.084;32.908;2023-10-19T11:20:28;89762.69;;;15.09;47.75
72585;BME280;60618;40.084;32.908;2023-10-19T11:22:56;89772.75;;;14.97;47.54
72585;BME280;60618;40.084;32.908;2023-10-19T11:25:28;89762.25;;;14.99;47.94
72585;BME280;60618;40.084;32.908;2023-10-19T11:27:57;89767.59;;;14.99;47.70
72585;BME280;60618;40.084;32.908;2023-10-19T11:30:26;89769.59;;;14.93;47.91
72585;BME280;60618;40.084;32.908;2023-10-19T11:32:54;89766.16;;;14.98;48.01
72585;BME280;60618;40.084;32.908;2023-10-19T11:35:23;89768.69;;;14.57;48.74
72585;BME280;60618;40.084;32.908;2023-10-19T11:37:51;89763.78;;;14.61;49.05
72585;BME280;60618;40.084;32.908;2023-10-19T11:40:23;89768.91;;;14.70;48.96
72585;BME280;60618;40.084;32.908;2023-10-19T11:42:51;89754.03;;;14.75;48.73
72585;BME280;60618;40.084;32.908;2023-10-19T11:45:20;89754.47;;;15.01;47.91
72585;BME280;60618;40.084;32.908;2023-10-19T11:47:47;89759.28;;;15.20;47.21
72585;BME280;60618;40.084;32.908;2023-10-19T11:50:14;89750.53;;;15.02;47.41
72585;BME280;60618;40.084;32.908;2023-10-19T11:52:42;89754.00;;;14.92;47.18
72585;BME280;60618;40.084;32.908;2023-10-19T11:55:09;89753.97;;;15.03;46.93
72585;BME280;60618;40.084;32.908;2023-10-19T11:57:36;89754.38;;;15.18;47.24
72585;BME280;60618;40.084;32.908;2023-10-19T12:00:03;89746.59;;;15.15;46.84
72585;BME280;60618;40.084;32.908;2023-10-19T12:02:30;89745.91;;;15.03;46.87
72585;BME280;60618;40.084;32.908;2023-10-19T12:04:58;89741.06;;;14.90;47.28
72585;BME280;60618;40.084;32.908;2023-10-19T12:07:24;89737.88;;;14.97;47.49
72585;BME280;60618;40.084;32.908;2023-10-19T12:09:51;89736.53;;;15.26;46.72
72585;BME280;60618;40.084;32.908;2023-10-19T12:12:18;89736.22;;;15.47;45.74
72585;BME280;60618;40.084;32.908;2023-10-19T12:14:45;89744.47;;;15.54;45.30
72585;BME280;60618;40.084;32.908;2023-10-19T12:17:12;89742.25;;;15.58;45.11
72585;BME280;60618;40.084;32.908;2023-10-19T12:19:39;89747.97;;;15.38;45.46
72585;BME280;60618;40.084;32.908;2023-10-19T12:22:06;89741.03;;;15.65;45.13
72585;BME280;60618;40.084;32.908;2023-10-19T12:24:33;89744.53;;;15.90;43.84
72585;BME280;60618;40.084;32.908;2023-10-19T12:27:00;89739.09;;;15.54;44.06
72585;BME280;60618;40.084;32.908;2023-10-19T12:29:27;89742.13;;;15.40;44.71
72585;BME280;60618;40.084;32.908;2023-10-19T12:31:54;89738.69;;;15.39;44.52
72585;BME280;60618;40.084;32.908;2023-10-19T12:34:21;89729.47;;;15.29;44.42
72585;BME280;60618;40.084;32.908;2023-10-19T12:36:48;89728.84;;;15.58;44.23
72585;BME280;60618;40.084;32.908;2023-10-19T12:39:15;89735.38;;;15.74;43.60
72585;BME280;60618;40.084;32.908;2023-10-19T12:41:42;89736.19;;;15.64;42.78
72585;BME280;60618;40.084;32.908;2023-10-19T12:44:09;89730.66;;;15.86;43.12
72585;BME280;60618;40.084;32.908;2023-10-19T12:46:36;89725.94;;;15.56;43.59
72585;BME280;60618;40.084;32.908;2023-10-19T12:49:06;89731.59;;;15.42;44.44
72585;BME280;60618;40.084;32.908;2023-10-19T12:51:33;89728.94;;;15.36;43.79
72585;BME280;60618;40.084;32.908;2023-10-19T12:54:00;89736.38;;;15.60;43.74
72585;BME280;60618;40.084;32.908;2023-10-19T12:56:27;89727.88;;;15.61;43.13
72585;BME280;60618;40.084;32.908;2023-10-19T12:58:54;89733.72;;;15.66;43.78
72585;BME280;60618;40.084;32.908;2023-10-19T13:01:21;89728.59;;;15.56;44.33
72585;BME280;60618;40.084;32.908;2023-10-19T13:03:48;89733.56;;;15.88;43.99
72585;BME280;60618;40.084;32.908;2023-10-19T13:06:17;89732.03;;;15.98;43.29
72585;BME280;60618;40.084;32.908;2023-10-19T13:08:44;89730.69;;;15.80;43.60